Scotia — MXHR6 — position and weather

sailwx.info

Track history (hours):
 
Tides and Currents Weather Stations Pressure Air Temp Water Temp Dewpoint Dewpoint Depression Visibility Wind Speed Wind Dir Waves Ship Positions

Oceanographic research ship Scotia (UK)

Detailed information on ship capabilities available from University of Delaware's Ocean Information Center.

Last reported at 2020-Sep-12 00:00 UTC. Time now 2020-Sep-20 20:57 UTC.
Position N 58°32' W 007°18'.
Warning: this ship's position is 8 days out of date.

Length 68.6 m; beam 15 m; draft 5.6 m.

Type: Other ship. MMSI: 234973000.

Date/timePositionNaut miles runAvg speedWind from/ knotsBaromVisibWave heightAir tempDewpointWater temp
2020-Sep-12 00:00N 58°32' W 007°18'8 5.7
2020-Sep-11 22:31N 58°35' W 007°02'21 6.1
2020-Sep-11 19:01N 58°40' W 006°23'72 7.2
2020-Sep-11 09:00N 58°44' W 004°05'5 9.9
2020-Sep-11 08:30N 58°44' W 003°55'510.5
2020-Sep-11 08:00N 58°44' W 003°45'1611.0
2020-Sep-11 06:30N 58°43' W 003°13'510.7
2020-Sep-11 06:01N 58°42' W 003°04'16 8.1
2020-Sep-11 04:01N 58°30' W 002°44'510.0
2020-Sep-11 03:30N 58°26' W 002°38'5910.7
2020-Sep-10 22:01N 57°38' W 001°33'611.5
2020-Sep-10 21:31N 57°32' W 001°38'611.6
2020-Sep-10 21:01N 57°27' W 001°42'13 8.7
2020-Sep-10 19:31N 57°15' W 001°52'10 2.0
2020-Sep-10 14:28N 57°09' W 002°05'0 0.0
2020-Sep-10 11:28N 57°09' W 002°05'0 0.0
2020-Sep-10 10:58N 57°09' W 002°05'0 0.0
2020-Sep-10 09:28N 57°09' W 002°05'0 0.0
2020-Sep-10 07:58N 57°09' W 002°05'0 0.0
2020-Sep-10 04:58N 57°09' W 002°05'0 0.0
2020-Sep-10 03:28N 57°09' W 002°05'0 0.0
2020-Sep-10 01:28N 57°09' W 002°05'0 0.0
2020-Sep-09 22:58N 57°09' W 002°05'0 0.0
2020-Sep-09 19:28N 57°09' W 002°05'0 0.0
2020-Sep-09 17:58N 57°09' W 002°05'0 0.0
2020-Sep-09 17:28N 57°09' W 002°05'0 0.0
2020-Sep-09 15:58N 57°09' W 002°05'0 0.0
2020-Sep-09 12:58N 57°09' W 002°05'0 0.0
2020-Sep-09 10:58N 57°09' W 002°05'0 0.0
2020-Sep-09 09:28N 57°09' W 002°05'0 0.0
2020-Sep-09 08:58N 57°09' W 002°05'0 0.0
2020-Sep-09 07:58N 57°09' W 002°05'0 0.0
2020-Sep-09 06:58N 57°09' W 002°05'0 0.0
2020-Sep-09 05:58N 57°09' W 002°05'0 0.0
2020-Sep-09 02:58N 57°09' W 002°05'0 0.0
2020-Sep-09 01:58N 57°09' W 002°05'0 0.0
2020-Sep-09 00:58N 57°09' W 002°05'0 0.0
2020-Sep-09 00:28N 57°09' W 002°05'0 0.0
2020-Sep-08 23:28N 57°09' W 002°05'0 0.0
2020-Sep-08 18:58N 57°09' W 002°05'0 0.0
2020-Sep-08 16:28N 57°09' W 002°05'0 0.0
2020-Sep-08 15:28N 57°09' W 002°05'0 0.0
2020-Sep-08 14:28N 57°09' W 002°05'0 0.0
2020-Sep-08 13:28N 57°09' W 002°05'0 0.0
2020-Sep-08 12:58N 57°09' W 002°05'0 0.0
2020-Sep-08 08:58N 57°09' W 002°05'0 0.0
2020-Sep-08 07:58N 57°09' W 002°05'0 0.0
2020-Sep-08 05:28N 57°09' W 002°05'0 0.0
2020-Sep-08 03:28N 57°09' W 002°05'0 0.0
2020-Sep-08 01:58N 57°09' W 002°05'0 0.0
2020-Sep-08 00:58N 57°09' W 002°05'0 0.0
2020-Sep-07 22:58N 57°09' W 002°05'0 0.0
2020-Sep-07 22:28N 57°09' W 002°05'0 0.0
2020-Sep-07 20:58N 57°09' W 002°05'0 0.0
2020-Sep-07 19:58N 57°09' W 002°05'0 0.0
2020-Sep-07 16:28N 57°09' W 002°05'0 0.0
2020-Sep-07 12:58N 57°09' W 002°05'0 0.0
2020-Sep-07 11:28N 57°09' W 002°05'0 0.0
2020-Sep-07 08:28N 57°09' W 002°05'0 0.0
2020-Sep-07 07:58N 57°09' W 002°05'0 0.0
2020-Sep-07 05:28N 57°09' W 002°05'0 0.0
2020-Sep-07 04:58N 57°09' W 002°05'0 0.0
2020-Sep-07 03:58N 57°09' W 002°05'0 0.0
2020-Sep-07 01:58N 57°09' W 002°05'0 0.0
2020-Sep-06 23:58N 57°09' W 002°05'0 0.0
2020-Sep-06 23:28N 57°09' W 002°05'0 0.0
2020-Sep-06 20:58N 57°09' W 002°05'3 0.6
2020-Sep-06 16:00N 57°10' W 002°00'3 6.8
2020-Sep-06 15:31N 57°13' W 001°57'26 8.5
2020-Sep-06 12:31N 57°34' W 001°31'1211.7
2020-Sep-06 11:30N 57°45' W 001°24'  
Track history (hours):
 
Tides and Currents Weather Stations Pressure Air Temp Water Temp Dewpoint Dewpoint Depression Visibility Wind Speed Wind Dir Waves Ship Positions

Oceanographic research ship Scotia (UK)

Detailed information on ship capabilities available from University of Delaware's Ocean Information Center.

Last reported at 2020-Sep-12 00:00 UTC. Time now 2020-Sep-20 20:57 UTC.
Position N 58°32' W 007°18'.
Warning: this ship's position is 8 days out of date.

Length 68.6 m; beam 15 m; draft 5.6 m.

Type: Other ship. MMSI: 234973000.

Date/timePositionNaut miles runAvg speedWind from/ knotsBaromVisibWave heightAir tempDewpointWater temp
2020-Sep-12 00:00N 58°32' W 007°18'8 5.7
2020-Sep-11 22:31N 58°35' W 007°02'21 6.1
2020-Sep-11 19:01N 58°40' W 006°23'72 7.2
2020-Sep-11 09:00N 58°44' W 004°05'5 9.9
2020-Sep-11 08:30N 58°44' W 003°55'510.5
2020-Sep-11 08:00N 58°44' W 003°45'1611.0
2020-Sep-11 06:30N 58°43' W 003°13'510.7
2020-Sep-11 06:01N 58°42' W 003°04'16 8.1
2020-Sep-11 04:01N 58°30' W 002°44'510.0
2020-Sep-11 03:30N 58°26' W 002°38'5910.7
2020-Sep-10 22:01N 57°38' W 001°33'611.5
2020-Sep-10 21:31N 57°32' W 001°38'611.6
2020-Sep-10 21:01N 57°27' W 001°42'13 8.7
2020-Sep-10 19:31N 57°15' W 001°52'10 2.0
2020-Sep-10 14:28N 57°09' W 002°05'0 0.0
2020-Sep-10 11:28N 57°09' W 002°05'0 0.0
2020-Sep-10 10:58N 57°09' W 002°05'0 0.0
2020-Sep-10 09:28N 57°09' W 002°05'0 0.0
2020-Sep-10 07:58N 57°09' W 002°05'0 0.0
2020-Sep-10 04:58N 57°09' W 002°05'0 0.0
2020-Sep-10 03:28N 57°09' W 002°05'0 0.0
2020-Sep-10 01:28N 57°09' W 002°05'0 0.0
2020-Sep-09 22:58N 57°09' W 002°05'0 0.0
2020-Sep-09 19:28N 57°09' W 002°05'0 0.0
2020-Sep-09 17:58N 57°09' W 002°05'0 0.0
2020-Sep-09 17:28N 57°09' W 002°05'0 0.0
2020-Sep-09 15:58N 57°09' W 002°05'0 0.0
2020-Sep-09 12:58N 57°09' W 002°05'0 0.0
2020-Sep-09 10:58N 57°09' W 002°05'0 0.0
2020-Sep-09 09:28N 57°09' W 002°05'0 0.0
2020-Sep-09 08:58N 57°09' W 002°05'0 0.0
2020-Sep-09 07:58N 57°09' W 002°05'0 0.0
2020-Sep-09 06:58N 57°09' W 002°05'0 0.0
2020-Sep-09 05:58N 57°09' W 002°05'0 0.0
2020-Sep-09 02:58N 57°09' W 002°05'0 0.0
2020-Sep-09 01:58N 57°09' W 002°05'0 0.0
2020-Sep-09 00:58N 57°09' W 002°05'0 0.0
2020-Sep-09 00:28N 57°09' W 002°05'0 0.0
2020-Sep-08 23:28N 57°09' W 002°05'0 0.0
2020-Sep-08 18:58N 57°09' W 002°05'0 0.0
2020-Sep-08 16:28N 57°09' W 002°05'0 0.0
2020-Sep-08 15:28N 57°09' W 002°05'0 0.0
2020-Sep-08 14:28N 57°09' W 002°05'0 0.0
2020-Sep-08 13:28N 57°09' W 002°05'0 0.0
2020-Sep-08 12:58N 57°09' W 002°05'0 0.0
2020-Sep-08 08:58N 57°09' W 002°05'0 0.0
2020-Sep-08 07:58N 57°09' W 002°05'0 0.0
2020-Sep-08 05:28N 57°09' W 002°05'0 0.0
2020-Sep-08 03:28N 57°09' W 002°05'0 0.0
2020-Sep-08 01:58N 57°09' W 002°05'0 0.0
2020-Sep-08 00:58N 57°09' W 002°05'0 0.0
2020-Sep-07 22:58N 57°09' W 002°05'0 0.0
2020-Sep-07 22:28N 57°09' W 002°05'0 0.0
2020-Sep-07 20:58N 57°09' W 002°05'0 0.0
2020-Sep-07 19:58N 57°09' W 002°05'0 0.0
2020-Sep-07 16:28N 57°09' W 002°05'0 0.0
2020-Sep-07 12:58N 57°09' W 002°05'0 0.0
2020-Sep-07 11:28N 57°09' W 002°05'0 0.0
2020-Sep-07 08:28N 57°09' W 002°05'0 0.0
2020-Sep-07 07:58N 57°09' W 002°05'0 0.0
2020-Sep-07 05:28N 57°09' W 002°05'0 0.0
2020-Sep-07 04:58N 57°09' W 002°05'0 0.0
2020-Sep-07 03:58N 57°09' W 002°05'0 0.0
2020-Sep-07 01:58N 57°09' W 002°05'0 0.0
2020-Sep-06 23:58N 57°09' W 002°05'0 0.0
2020-Sep-06 23:28N 57°09' W 002°05'0 0.0
2020-Sep-06 20:58N 57°09' W 002°05'3 0.6
2020-Sep-06 16:00N 57°10' W 002°00'3 6.8
2020-Sep-06 15:31N 57°13' W 001°57'26 8.5
2020-Sep-06 12:31N 57°34' W 001°31'1211.7
2020-Sep-06 11:30N 57°45' W 001°24'  

Dump ship's entire track history